Time;durP1;ratioP1;P1;durP2;ratioP2;P2;SDS_P1;SDS_P2;PMS_P1;PMS_P2;Temp;Humidity;BMP_temperature;BMP_pressure;BME280_temperature;BME280_humidity;BME280_pressure;Samples;Min_cycle;Max_cycle;Signal;HPM_P1;HPM_P2
2021/09/23 00:01:45;;;;;;;;;;;22.90;41.40;;;;;;1627868;72;681;-53
2021/09/23 00:03:58;;;;;;;;;;;22.90;41.50;;;;;;1631444;72;1122;-56
2021/09/23 00:05:50;;;;;;;;;;;22.90;41.30;;;;;;1626706;72;1529;-53
2021/09/23 00:07:53;;;;;;;;;;;22.90;41.30;;;;;;1630056;72;1088;-55
2021/09/23 00:09:54;;;;;;;;;;;23.00;41.40;;;;;;1629174;72;801;-54
2021/09/23 00:11:56;;;;;;;;;;;22.90;41.30;;;;;;1631079;72;720;-56
2021/09/23 00:13:58;;;;;;;;;;;22.90;41.30;;;;;;1634095;72;1947;-55
2021/09/23 00:16:01;;;;;;;;;;;22.90;41.30;;;;;;1634990;72;1025;-56
2021/09/23 00:18:04;;;;;;;;;;;22.90;41.30;;;;;;1634980;72;742;-56
2021/09/23 00:20:06;;;;;;;;;;;22.90;41.30;;;;;;1630170;72;730;-54
2021/09/23 00:22:08;;;;;;;;;;;22.90;41.40;;;;;;1636891;72;743;-57
2021/09/23 00:24:10;;;;;;;;;;;22.80;41.30;;;;;;1629444;72;1170;-55
2021/09/23 00:26:12;;;;;;;;;;;22.90;41.30;;;;;;1620919;71;655;-54
2021/09/23 00:28:14;;;;;;;;;;;22.90;41.40;;;;;;1636865;72;1098;-54
2021/09/23 00:30:16;;;;;;;;;;;22.90;41.30;;;;;;1626871;72;699;-57
2021/09/23 00:32:17;;;;;;;;;;;22.80;41.20;;;;;;1633472;72;1930;-58
2021/09/23 00:34:19;;;;;;;;;;;22.80;41.30;;;;;;1635428;72;1139;-56
2021/09/23 00:36:21;;;;;;;;;;;22.90;41.40;;;;;;1632920;72;839;-57
2021/09/23 00:38:23;;;;;;;;;;;22.80;41.20;;;;;;1625946;72;839;-54
2021/09/23 00:40:25;;;;;;;;;;;22.90;41.50;;;;;;1632868;72;787;-57
2021/09/23 00:42:27;;;;;;;;;;;22.80;41.30;;;;;;1626064;72;550;-55
2021/09/23 00:44:29;;;;;;;;;;;22.80;41.40;;;;;;1595953;72;226285;-74
2021/09/23 00:46:30;;;;;;;;;;;22.60;41.20;;;;;;1535761;75;771;-76
2021/09/23 00:48:32;;;;;;;;;;;22.80;41.30;;;;;;1527897;75;1228;-74
2021/09/23 00:50:34;;;;;;;;;;;22.80;41.30;;;;;;1540450;75;705;-75
2021/09/23 00:52:36;;;;;;;;;;;22.90;41.40;;;;;;1554570;75;1946;-77
2021/09/23 00:54:38;;;;;;;;;;;22.80;41.40;;;;;;1551667;75;670;-75
2021/09/23 00:56:40;;;;;;;;;;;22.70;41.30;;;;;;1540121;75;713;-75
2021/09/23 00:58:42;;;;;;;;;;;22.80;41.40;;;;;;1536749;76;1142;-76
2021/09/23 01:00:44;;;;;;;;;;;22.80;41.40;;;;;;1548012;75;693;-75
2021/09/23 01:02:46;;;;;;;;;;;22.80;41.50;;;;;;1537009;75;794;-76
2021/09/23 01:04:48;;;;;;;;;;;22.80;41.40;;;;;;1544736;76;716;-76
2021/09/23 01:06:50;;;;;;;;;;;22.80;41.50;;;;;;1537772;76;725;-74
2021/09/23 01:08:53;;;;;;;;;;;22.80;41.40;;;;;;1552130;75;1158;-74
2021/09/23 01:10:55;;;;;;;;;;;22.70;41.50;;;;;;1551429;75;715;-75
2021/09/23 01:12:57;;;;;;;;;;;22.80;41.50;;;;;;1562596;75;1927;-75
2021/09/23 01:15:00;;;;;;;;;;;22.70;41.50;;;;;;1547628;75;708;-75
2021/09/23 01:17:03;;;;;;;;;;;22.80;41.50;;;;;;1549885;75;728;-76
2021/09/23 01:19:05;;;;;;;;;;;22.70;41.50;;;;;;1548407;74;1160;-74
2021/09/23 01:21:07;;;;;;;;;;;22.70;41.60;;;;;;1547426;75;733;-73
2021/09/23 01:23:09;;;;;;;;;;;22.70;41.60;;;;;;1541760;75;725;-74
2021/09/23 01:25:12;;;;;;;;;;;22.70;41.60;;;;;;1541677;75;721;-74
2021/09/23 01:27:14;;;;;;;;;;;22.70;41.50;;;;;;1545236;75;796;-74
2021/09/23 01:29:16;;;;;;;;;;;22.90;41.60;;;;;;1546596;75;1198;-76
2021/09/23 01:31:18;;;;;;;;;;;22.70;41.50;;;;;;1545850;76;741;-74
2021/09/23 01:33:20;;;;;;;;;;;22.80;41.50;;;;;;1543149;76;1931;-76
2021/09/23 01:35:22;;;;;;;;;;;22.90;41.60;;;;;;1543442;75;736;-74
2021/09/23 01:37:24;;;;;;;;;;;22.90;41.60;;;;;;1544634;75;752;-73
2021/09/23 01:39:26;;;;;;;;;;;22.80;41.50;;;;;;1545179;75;1147;-73
2021/09/23 01:41:28;;;;;;;;;;;22.90;41.60;;;;;;1544620;76;709;-73
2021/09/23 01:43:30;;;;;;;;;;;22.90;41.60;;;;;;1542659;75;784;-73
2021/09/23 01:45:32;;;;;;;;;;;22.90;41.60;;;;;;1544778;75;751;-74
2021/09/23 01:47:34;;;;;;;;;;;22.90;41.50;;;;;;1543911;75;707;-73
2021/09/23 01:49:36;;;;;;;;;;;23.00;41.50;;;;;;1544125;75;1140;-73
2021/09/23 01:51:38;;;;;;;;;;;22.90;41.50;;;;;;1543456;76;738;-73
2021/09/23 01:53:39;;;;;;;;;;;22.90;41.60;;;;;;1542416;75;1951;-73
2021/09/23 01:55:41;;;;;;;;;;;22.80;41.50;;;;;;1543081;76;733;-72
2021/09/23 01:57:43;;;;;;;;;;;22.80;41.60;;;;;;1543265;75;719;-72
2021/09/23 01:59:45;;;;;;;;;;;22.80;41.70;;;;;;1543188;76;1173;-72
2021/09/23 02:01:47;;;;;;;;;;;22.90;41.80;;;;;;1535891;76;733;-72
2021/09/23 02:03:49;;;;;;;;;;;22.90;41.80;;;;;;1543124;75;783;-72
2021/09/23 02:05:51;;;;;;;;;;;22.90;41.80;;;;;;1542635;76;728;-72
2021/09/23 02:07:57;;;;;;;;;;;22.80;41.70;;;;;;1542179;75;715;-72
2021/09/23 02:09:56;;;;;;;;;;;22.80;41.70;;;;;;1544680;75;1478;-73
2021/09/23 02:11:58;;;;;;;;;;;22.80;41.80;;;;;;1556282;75;765;-73
2021/09/23 02:14:00;;;;;;;;;;;22.80;41.80;;;;;;1544202;75;1937;-73
2021/09/23 02:16:02;;;;;;;;;;;22.80;41.80;;;;;;1547817;76;728;-73
2021/09/23 02:18:04;;;;;;;;;;;22.80;41.80;;;;;;1543045;75;1150;-74
2021/09/23 02:20:06;;;;;;;;;;;22.80;41.80;;;;;;1545470;76;718;-73
2021/09/23 02:22:08;;;;;;;;;;;22.80;41.90;;;;;;1547005;75;806;-75
2021/09/23 02:24:10;;;;;;;;;;;22.80;41.90;;;;;;1545191;75;724;-73
2021/09/23 02:26:12;;;;;;;;;;;22.80;41.90;;;;;;1547760;76;734;-73
2021/09/23 02:28:14;;;;;;;;;;;22.80;41.80;;;;;;1543062;75;1185;-73
2021/09/23 02:30:15;;;;;;;;;;;22.80;41.90;;;;;;1546893;76;696;-73
2021/09/23 02:32:17;;;;;;;;;;;22.90;42.00;;;;;;1548113;75;784;-73
2021/09/23 02:34:19;;;;;;;;;;;22.90;42.10;;;;;;1540355;76;1933;-73
2021/09/23 02:36:21;;;;;;;;;;;22.90;42.00;;;;;;1546191;76;679;-72
2021/09/23 02:38:23;;;;;;;;;;;23.00;41.90;;;;;;1543873;76;1119;-73
2021/09/23 02:40:25;;;;;;;;;;;23.00;41.80;;;;;;1546929;75;697;-73
2021/09/23 02:42:27;;;;;;;;;;;23.10;41.70;;;;;;1546510;75;644;-73
2021/09/23 02:44:29;;;;;;;;;;;23.20;41.50;;;;;;1541772;75;753;-73
2021/09/23 02:46:32;;;;;;;;;;;23.20;41.40;;;;;;1541713;76;789;-73
2021/09/23 02:48:33;;;;;;;;;;;23.20;41.40;;;;;;1544561;75;1178;-73
2021/09/23 02:50:35;;;;;;;;;;;23.20;41.40;;;;;;1541117;75;766;-74
2021/09/23 02:52:37;;;;;;;;;;;23.20;41.40;;;;;;1544639;76;684;-74
2021/09/23 02:54:39;;;;;;;;;;;23.10;41.50;;;;;;1545229;75;1933;-75
2021/09/23 02:56:41;;;;;;;;;;;23.10;41.50;;;;;;1542637;75;710;-73
2021/09/23 02:58:43;;;;;;;;;;;23.10;41.60;;;;;;1547116;76;1183;-74
2021/09/23 03:00:45;;;;;;;;;;;23.10;41.50;;;;;;1543681;75;942;-73
2021/09/23 03:02:47;;;;;;;;;;;23.10;41.60;;;;;;1543849;76;710;-74
2021/09/23 03:04:49;;;;;;;;;;;23.10;41.60;;;;;;1544595;76;771;-78
2021/09/23 03:06:51;;;;;;;;;;;23.10;41.60;;;;;;1544151;75;752;-74
2021/09/23 03:08:53;;;;;;;;;;;23.00;41.40;;;;;;1543131;76;1166;-74
2021/09/23 03:10:55;;;;;;;;;;;23.10;41.60;;;;;;1543625;75;710;-73
2021/09/23 03:12:56;;;;;;;;;;;23.00;41.50;;;;;;1547514;75;721;-73
2021/09/23 03:14:58;;;;;;;;;;;23.10;41.50;;;;;;1543358;76;1936;-76
2021/09/23 03:17:00;;;;;;;;;;;23.00;41.50;;;;;;1541128;76;712;-75
2021/09/23 03:19:02;;;;;;;;;;;23.00;41.50;;;;;;1543864;76;1218;-76
2021/09/23 03:21:04;;;;;;;;;;;23.00;41.50;;;;;;1544023;75;625;-76
2021/09/23 03:23:06;;;;;;;;;;;23.00;41.50;;;;;;1543270;76;763;-74
2021/09/23 03:25:08;;;;;;;;;;;23.00;41.50;;;;;;1542239;75;697;-74
2021/09/23 03:27:10;;;;;;;;;;;23.00;41.40;;;;;;1543732;76;694;-76
2021/09/23 03:29:12;;;;;;;;;;;23.00;41.40;;;;;;1543312;75;1131;-74
2021/09/23 03:31:14;;;;;;;;;;;23.00;41.40;;;;;;1542019;75;738;-75
2021/09/23 03:33:16;;;;;;;;;;;23.00;41.40;;;;;;1544962;75;734;-74
2021/09/23 03:35:18;;;;;;;;;;;22.90;41.40;;;;;;1543016;75;694;-73
2021/09/23 03:37:20;;;;;;;;;;;22.90;41.40;;;;;;1542984;76;780;-73
2021/09/23 03:39:22;;;;;;;;;;;22.90;41.30;;;;;;1542351;75;1151;-72
2021/09/23 03:41:23;;;;;;;;;;;23.00;41.40;;;;;;1542631;76;756;-72
2021/09/23 03:43:25;;;;;;;;;;;22.80;41.30;;;;;;1543181;76;709;-72
2021/09/23 03:45:27;;;;;;;;;;;22.80;41.30;;;;;;1542574;76;726;-72
2021/09/23 03:47:29;;;;;;;;;;;22.90;41.40;;;;;;1539089;76;761;-73
2021/09/23 03:49:31;;;;;;;;;;;22.90;41.40;;;;;;1542270;75;1147;-73
2021/09/23 03:51:33;;;;;;;;;;;22.90;41.40;;;;;;1542493;76;723;-72
2021/09/23 03:53:38;;;;;;;;;;;22.80;41.30;;;;;;1541584;75;1941;-74
2021/09/23 03:55:39;;;;;;;;;;;22.80;41.30;;;;;;1537912;76;1182;-72
2021/09/23 03:57:40;;;;;;;;;;;22.80;41.30;;;;;;1547468;76;736;-72
2021/09/23 03:59:42;;;;;;;;;;;22.80;41.30;;;;;;1542664;75;1132;-73
2021/09/23 04:01:46;;;;;;;;;;;22.80;41.30;;;;;;1540095;76;711;-76
2021/09/23 04:03:48;;;;;;;;;;;22.80;41.40;;;;;;1545595;76;697;-75
2021/09/23 04:05:51;;;;;;;;;;;22.80;41.50;;;;;;1542087;76;745;-75
2021/09/23 04:07:52;;;;;;;;;;;22.70;41.50;;;;;;1537760;76;708;-75
2021/09/23 04:09:54;;;;;;;;;;;22.70;41.50;;;;;;1541697;76;725;-76
2021/09/23 04:11:56;;;;;;;;;;;22.80;41.50;;;;;;1541440;76;654;-74
2021/09/23 04:13:58;;;;;;;;;;;22.80;41.50;;;;;;1542556;76;1949;-74
2021/09/23 04:16:00;;;;;;;;;;;22.70;41.50;;;;;;1541549;76;738;-73
2021/09/23 04:18:02;;;;;;;;;;;22.80;41.50;;;;;;1541684;76;1103;-75
2021/09/23 04:20:04;;;;;;;;;;;22.80;41.50;;;;;;1541992;76;721;-73
2021/09/23 04:22:06;;;;;;;;;;;22.80;41.50;;;;;;1541460;76;736;-74
2021/09/23 04:24:07;;;;;;;;;;;22.80;41.40;;;;;;1542292;75;703;-74
2021/09/23 04:26:09;;;;;;;;;;;22.80;41.30;;;;;;1543696;75;928;-74
2021/09/23 04:28:11;;;;;;;;;;;22.80;41.30;;;;;;1541379;75;1166;-74
2021/09/23 04:30:13;;;;;;;;;;;22.80;41.30;;;;;;1542789;75;662;-73
2021/09/23 04:32:15;;;;;;;;;;;22.90;41.40;;;;;;1537428;75;919;-73
2021/09/23 04:34:17;;;;;;;;;;;22.80;41.30;;;;;;1542577;75;1925;-75
2021/09/23 04:36:19;;;;;;;;;;;22.80;41.20;;;;;;1542458;76;772;-75
2021/09/23 04:38:21;;;;;;;;;;;22.80;41.20;;;;;;1542376;76;1135;-75
2021/09/23 04:40:22;;;;;;;;;;;22.80;41.20;;;;;;1536978;75;737;-74
2021/09/23 04:42:24;;;;;;;;;;;22.80;41.20;;;;;;1544478;75;705;-73
2021/09/23 04:44:27;;;;;;;;;;;22.80;41.20;;;;;;1546597;75;721;-73
2021/09/23 04:46:29;;;;;;;;;;;22.80;41.20;;;;;;1544224;75;771;-76
2021/09/23 04:48:31;;;;;;;;;;;22.80;41.10;;;;;;1548406;76;1166;-76
2021/09/23 04:50:33;;;;;;;;;;;22.80;41.10;;;;;;1547109;76;715;-77
2021/09/23 04:52:35;;;;;;;;;;;22.90;41.20;;;;;;1541962;75;717;-75
2021/09/23 04:54:37;;;;;;;;;;;22.90;41.30;;;;;;1543384;75;1930;-77
2021/09/23 04:56:39;;;;;;;;;;;22.90;41.40;;;;;;1541215;76;642;-76
2021/09/23 04:58:41;;;;;;;;;;;22.80;41.20;;;;;;1543830;75;1130;-74
2021/09/23 05:00:43;;;;;;;;;;;22.90;41.30;;;;;;1540833;76;767;-74
2021/09/23 05:02:46;;;;;;;;;;;22.90;41.40;;;;;;1541756;75;683;-77
2021/09/23 05:04:48;;;;;;;;;;;22.90;41.30;;;;;;1542191;75;719;-75
2021/09/23 05:06:53;;;;;;;;;;;22.90;41.10;;;;;;1547803;75;770;-74
2021/09/23 05:08:53;;;;;;;;;;;22.90;41.00;;;;;;1543925;75;1167;-75
2021/09/23 05:10:55;;;;;;;;;;;22.90;40.90;;;;;;1544967;76;748;-75
2021/09/23 05:12:57;;;;;;;;;;;22.80;40.70;;;;;;1541981;76;721;-75
2021/09/23 05:14:59;;;;;;;;;;;22.80;40.70;;;;;;1541664;76;1937;-74
2021/09/23 05:17:01;;;;;;;;;;;22.70;40.70;;;;;;1541716;76;757;-75
2021/09/23 05:19:02;;;;;;;;;;;22.80;40.70;;;;;;1538784;76;1144;-79
2021/09/23 05:21:04;;;;;;;;;;;22.70;40.60;;;;;;1541735;76;679;-75
2021/09/23 05:23:06;;;;;;;;;;;22.70;40.70;;;;;;1543921;76;744;-75
2021/09/23 05:25:08;;;;;;;;;;;22.70;40.70;;;;;;1541647;76;661;-75
2021/09/23 05:27:10;;;;;;;;;;;22.80;40.90;;;;;;1541649;75;689;-75
2021/09/23 05:29:12;;;;;;;;;;;22.80;41.20;;;;;;1542952;76;1074;-77
2021/09/23 05:31:14;;;;;;;;;;;22.80;41.20;;;;;;1543958;75;759;-76
2021/09/23 05:33:16;;;;;;;;;;;22.70;41.30;;;;;;1542439;76;740;-76
2021/09/23 05:35:18;;;;;;;;;;;22.80;41.40;;;;;;1541209;76;1924;-77
2021/09/23 05:37:20;;;;;;;;;;;22.80;41.70;;;;;;1541596;76;705;-74
2021/09/23 05:39:22;;;;;;;;;;;22.90;41.60;;;;;;1541458;76;1135;-78
2021/09/23 05:41:23;;;;;;;;;;;22.90;41.50;;;;;;1544722;76;729;-74
2021/09/23 05:43:26;;;;;;;;;;;22.90;41.40;;;;;;1541667;76;718;-75
2021/09/23 05:45:27;;;;;;;;;;;22.80;41.30;;;;;;1545411;76;704;-74
2021/09/23 05:47:29;;;;;;;;;;;22.80;41.30;;;;;;1541812;76;772;-76
2021/09/23 05:49:31;;;;;;;;;;;22.80;41.30;;;;;;1537409;76;1202;-77
2021/09/23 05:51:33;;;;;;;;;;;22.80;41.30;;;;;;1541446;76;711;-75
2021/09/23 05:53:35;;;;;;;;;;;22.80;41.30;;;;;;1543806;75;704;-77
2021/09/23 05:55:37;;;;;;;;;;;22.80;41.30;;;;;;1541664;76;1937;-74
2021/09/23 05:57:39;;;;;;;;;;;22.70;41.30;;;;;;1541560;75;768;-74
2021/09/23 05:59:41;;;;;;;;;;;22.70;41.30;;;;;;1547359;75;1159;-75
2021/09/23 06:01:42;;;;;;;;;;;22.80;41.30;;;;;;1543890;75;748;-76
2021/09/23 06:03:44;;;;;;;;;;;22.70;41.40;;;;;;1543961;76;672;-76
2021/09/23 06:05:47;;;;;;;;;;;22.80;41.40;;;;;;1541556;76;763;-74
2021/09/23 06:07:49;;;;;;;;;;;22.80;41.40;;;;;;1541519;76;690;-74
2021/09/23 06:09:51;;;;;;;;;;;22.70;41.40;;;;;;1541717;76;1588;-76
2021/09/23 06:11:53;;;;;;;;;;;22.70;41.40;;;;;;1544020;76;667;-75
2021/09/23 06:13:55;;;;;;;;;;;22.70;41.40;;;;;;1541475;76;731;-76
2021/09/23 06:15:57;;;;;;;;;;;22.70;41.40;;;;;;1545927;75;1930;-74
2021/09/23 06:17:59;;;;;;;;;;;22.80;41.50;;;;;;1542085;75;1138;-78
2021/09/23 06:20:01;;;;;;;;;;;22.80;41.50;;;;;;1546290;75;668;-76
2021/09/23 06:22:03;;;;;;;;;;;22.80;41.70;;;;;;1541950;75;713;-76
2021/09/23 06:24:05;;;;;;;;;;;22.80;41.50;;;;;;1541550;76;708;-75
2021/09/23 06:26:07;;;;;;;;;;;22.70;41.50;;;;;;1544394;75;764;-77
2021/09/23 06:28:10;;;;;;;;;;;22.80;41.30;;;;;;1541603;76;1145;-74
2021/09/23 06:30:13;;;;;;;;;;;22.70;41.10;;;;;;1548683;76;585;-75
2021/09/23 06:32:15;;;;;;;;;;;22.70;41.00;;;;;;1551439;76;761;-74
2021/09/23 06:34:17;;;;;;;;;;;22.60;41.00;;;;;;1547128;76;697;-76
2021/09/23 06:36:18;;;;;;;;;;;22.60;40.90;;;;;;1540912;76;1939;-74
2021/09/23 06:38:20;;;;;;;;;;;22.60;40.90;;;;;;1546033;76;1083;-74
2021/09/23 06:40:22;;;;;;;;;;;22.60;40.90;;;;;;1548641;76;717;-74
2021/09/23 06:42:24;;;;;;;;;;;22.60;40.90;;;;;;1543730;76;722;-74
2021/09/23 06:44:26;;;;;;;;;;;22.50;41.00;;;;;;1545837;75;729;-73
2021/09/23 06:46:28;;;;;;;;;;;22.60;41.00;;;;;;1544260;76;697;-74
2021/09/23 06:48:30;;;;;;;;;;;22.50;41.00;;;;;;1546711;76;1178;-76
2021/09/23 06:50:32;;;;;;;;;;;22.50;41.00;;;;;;1541551;76;768;-74
2021/09/23 06:52:33;;;;;;;;;;;22.60;41.10;;;;;;1544200;76;734;-73
2021/09/23 06:54:35;;;;;;;;;;;22.60;41.00;;;;;;1547206;75;1937;-74
2021/09/23 06:56:37;;;;;;;;;;;22.60;41.00;;;;;;1544810;76;686;-74
2021/09/23 06:58:39;;;;;;;;;;;22.50;41.00;;;;;;1554005;73;225470;-56
2021/09/23 07:00:41;;;;;;;;;;;22.50;41.10;;;;;;1570507;75;674;-56
2021/09/23 07:02:44;;;;;;;;;;;22.40;41.00;;;;;;1568861;75;698;-55
2021/09/23 07:04:46;;;;;;;;;;;22.40;41.00;;;;;;1588231;74;1205;-54
2021/09/23 07:06:48;;;;;;;;;;;22.50;41.30;;;;;;1568887;74;722;-55
2021/09/23 07:08:50;;;;;;;;;;;22.40;41.20;;;;;;1571388;74;716;-56
2021/09/23 07:10:52;;;;;;;;;;;22.40;41.30;;;;;;1569715;74;748;-56
2021/09/23 07:12:55;;;;;;;;;;;22.40;41.30;;;;;;1565817;74;772;-57
2021/09/23 07:14:57;;;;;;;;;;;22.40;41.30;;;;;;1562317;74;1946;-56
2021/09/23 07:16:58;;;;;;;;;;;22.50;41.50;;;;;;1581179;74;664;-57
2021/09/23 07:19:00;;;;;;;;;;;22.40;41.50;;;;;;1557639;74;752;-55
2021/09/23 07:21:02;;;;;;;;;;;22.40;41.40;;;;;;1580374;74;632;-57
2021/09/23 07:23:04;;;;;;;;;;;22.50;41.50;;;;;;1575801;74;666;-55
2021/09/23 07:25:06;;;;;;;;;;;22.40;41.50;;;;;;1565491;74;1172;-56
2021/09/23 07:27:08;;;;;;;;;;;22.40;41.50;;;;;;1574824;74;705;-57
2021/09/23 07:29:14;;;;;;;;;;;22.50;41.70;;;;;;1572098;74;789;-55
2021/09/23 07:31:14;;;;;;;;;;;22.50;41.70;;;;;;1570939;74;1550;-56
2021/09/23 07:33:15;;;;;;;;;;;22.50;41.70;;;;;;1568458;74;700;-54
2021/09/23 07:35:17;;;;;;;;;;;22.50;41.70;;;;;;1559947;74;1936;-55
2021/09/23 07:37:19;;;;;;;;;;;22.50;41.80;;;;;;1554664;74;726;-55
2021/09/23 07:39:21;;;;;;;;;;;22.50;41.80;;;;;;1582377;74;718;-55
2021/09/23 07:41:23;;;;;;;;;;;22.50;41.80;;;;;;1567873;74;701;-55
2021/09/23 07:43:25;;;;;;;;;;;22.60;41.80;;;;;;1551648;74;1186;-55
2021/09/23 07:45:27;;;;;;;;;;;22.60;41.90;;;;;;1552342;74;724;-55
2021/09/23 07:47:29;;;;;;;;;;;22.60;42.10;;;;;;1571927;74;703;-55
2021/09/23 07:49:31;;;;;;;;;;;22.70;42.10;;;;;;1559978;74;737;-55
2021/09/23 07:51:33;;;;;;;;;;;22.70;42.20;;;;;;1569199;74;722;-56
2021/09/23 07:53:35;;;;;;;;;;;22.80;42.20;;;;;;1564284;74;1154;-55
2021/09/23 07:55:37;;;;;;;;;;;22.80;42.20;;;;;;1583535;74;1930;-57
2021/09/23 07:57:39;;;;;;;;;;;22.90;42.30;;;;;;1588314;74;700;-56
2021/09/23 07:59:41;;;;;;;;;;;22.90;42.30;;;;;;1563283;74;802;-55
2021/09/23 08:01:43;;;;;;;;;;;23.00;42.50;;;;;;1572646;74;731;-57
2021/09/23 08:03:44;;;;;;;;;;;23.00;42.10;;;;;;1575948;74;1137;-55
2021/09/23 08:05:46;;;;;;;;;;;23.00;41.90;;;;;;1578510;74;670;-56
2021/09/23 08:07:49;;;;;;;;;;;23.10;42.00;;;;;;1576201;74;702;-55
2021/09/23 08:09:50;;;;;;;;;;;23.10;42.10;;;;;;1573423;74;730;-56
2021/09/23 08:11:52;;;;;;;;;;;23.20;42.10;;;;;;1574189;74;714;-53
2021/09/23 08:13:54;;;;;;;;;;;23.10;42.20;;;;;;1570584;74;1119;-56
2021/09/23 08:15:56;;;;;;;;;;;23.20;42.10;;;;;;1582950;74;1963;-56
2021/09/23 08:17:58;;;;;;;;;;;23.30;42.00;;;;;;1575804;74;761;-57
2021/09/23 08:20:00;;;;;;;;;;;23.30;41.80;;;;;;1580975;74;715;-56
2021/09/23 08:22:03;;;;;;;;;;;23.30;41.70;;;;;;1576966;74;718;-56
2021/09/23 08:24:05;;;;;;;;;;;23.30;41.50;;;;;;1576919;74;1109;-56
2021/09/23 08:26:07;;;;;;;;;;;23.20;41.40;;;;;;1575194;74;722;-56
2021/09/23 08:28:11;;;;;;;;;;;23.20;41.50;;;;;;1575009;74;690;-54
2021/09/23 08:30:12;;;;;;;;;;;23.30;41.50;;;;;;1575601;74;1587;-57
2021/09/23 08:32:20;;;;;;;;;;;23.20;41.40;;;;;;1573755;74;746;-56
2021/09/23 08:34:22;;;;;;;;;;;23.30;41.50;;;;;;1578381;74;1157;-56
2021/09/23 08:36:24;;;;;;;;;;;23.30;41.70;;;;;;1579593;74;1949;-56
2021/09/23 08:38:26;;;;;;;;;;;23.30;41.80;;;;;;1575644;74;799;-55
2021/09/23 08:40:28;;;;;;;;;;;23.30;41.80;;;;;;1574663;74;745;-56
2021/09/23 08:42:30;;;;;;;;;;;23.40;41.70;;;;;;1572192;74;720;-56
2021/09/23 08:44:32;;;;;;;;;;;23.40;41.60;;;;;;1572498;74;1236;-57
2021/09/23 08:46:35;;;;;;;;;;;23.40;41.50;;;;;;1582750;74;667;-54
2021/09/23 08:48:37;;;;;;;;;;;23.40;41.60;;;;;;1576654;74;717;-56
2021/09/23 08:50:39;;;;;;;;;;;23.40;41.80;;;;;;1578204;74;725;-56
2021/09/23 08:52:41;;;;;;;;;;;23.50;42.00;;;;;;1578171;74;783;-55
2021/09/23 08:54:43;;;;;;;;;;;23.60;42.00;;;;;;1577501;74;1095;-55
2021/09/23 08:56:45;;;;;;;;;;;23.60;41.90;;;;;;1581289;74;1949;-54
2021/09/23 08:58:47;;;;;;;;;;;23.60;41.80;;;;;;1582911;74;753;-54
2021/09/23 09:00:57;;;;;;;;;;;23.60;41.80;;;;;;1571663;74;769;-55
2021/09/23 09:03:00;;;;;;;;;;;23.70;42.00;;;;;;1564999;74;1567;-58
2021/09/23 09:05:02;;;;;;;;;;;23.70;42.00;;;;;;1578521;74;1693;-55
2021/09/23 09:07:04;;;;;;;;;;;23.70;42.00;;;;;;1580975;74;678;-54
2021/09/23 09:09:07;;;;;;;;;;;23.80;42.00;;;;;;1571737;74;754;-55
2021/09/23 09:11:11;;;;;;;;;;;23.80;41.90;;;;;;1568430;74;1800;-58
2021/09/23 09:13:13;;;;;;;;;;;23.70;41.90;;;;;;1576904;74;677;-56
2021/09/23 09:15:17;;;;;;;;;;;23.80;41.90;;;;;;1577925;74;1101;-55
2021/09/23 09:17:19;;;;;;;;;;;23.80;41.90;;;;;;1570907;74;1902;-56
2021/09/23 09:19:21;;;;;;;;;;;23.80;41.90;;;;;;1575981;74;730;-56
2021/09/23 09:21:23;;;;;;;;;;;23.90;42.00;;;;;;1580841;74;719;-54
2021/09/23 09:23:26;;;;;;;;;;;23.80;41.80;;;;;;1576052;74;1140;-54
2021/09/23 09:25:28;;;;;;;;;;;23.90;41.90;;;;;;1584776;74;755;-54
2021/09/23 09:27:33;;;;;;;;;;;23.80;41.80;;;;;;1550688;75;760;-56
2021/09/23 09:29:35;;;;;;;;;;;23.90;41.90;;;;;;1570567;74;668;-55
2021/09/23 09:31:39;;;;;;;;;;;23.90;41.90;;;;;;1573636;74;967;-56
2021/09/23 09:33:42;;;;;;;;;;;23.90;41.90;;;;;;1576603;74;1099;-55
2021/09/23 09:35:44;;;;;;;;;;;23.90;41.90;;;;;;1576659;74;1950;-54
2021/09/23 09:37:49;;;;;;;;;;;24.00;41.80;;;;;;1568075;74;714;-57
2021/09/23 09:39:57;;;;;;;;;;;24.00;41.80;;;;;;1566457;74;937;-55
2021/09/23 09:42:00;;;;;;;;;;;24.00;41.60;;;;;;1569571;74;750;-55
2021/09/23 09:44:03;;;;;;;;;;;24.10;41.60;;;;;;1543341;75;1115;-55
2021/09/23 09:46:05;;;;;;;;;;;24.10;41.50;;;;;;1577774;74;768;-55
2021/09/23 09:48:07;;;;;;;;;;;24.00;41.40;;;;;;1569028;74;718;-56
2021/09/23 09:50:12;;;;;;;;;;;24.10;41.50;;;;;;1569017;74;715;-55
2021/09/23 09:52:14;;;;;;;;;;;24.10;41.50;;;;;;1572253;74;679;-56
2021/09/23 09:54:17;;;;;;;;;;;24.10;41.30;;;;;;1548580;75;1146;-55
2021/09/23 09:56:22;;;;;;;;;;;24.20;41.30;;;;;;1573128;74;1949;-55
2021/09/23 09:58:24;;;;;;;;;;;24.20;41.20;;;;;;1572408;74;672;-55
2021/09/23 10:00:27;;;;;;;;;;;24.20;41.00;;;;;;1566340;74;792;-56
2021/09/23 10:02:28;;;;;;;;;;;24.30;41.10;;;;;;1563657;74;606;-55
2021/09/23 10:04:32;;;;;;;;;;;24.40;41.00;;;;;;1579565;74;1158;-58
2021/09/23 10:06:34;;;;;;;;;;;24.30;41.00;;;;;;1570260;74;712;-55
2021/09/23 10:08:36;;;;;;;;;;;24.30;41.00;;;;;;1534318;76;725;-54
2021/09/23 10:10:38;;;;;;;;;;;24.30;41.10;;;;;;1541948;76;762;-55
2021/09/23 10:12:41;;;;;;;;;;;24.20;41.10;;;;;;1533271;76;723;-55
2021/09/23 10:14:43;;;;;;;;;;;24.10;41.20;;;;;;1516295;78;1136;-55
2021/09/23 10:16:45;;;;;;;;;;;24.10;41.30;;;;;;1574647;74;1906;-57
2021/09/23 10:18:47;;;;;;;;;;;24.10;41.30;;;;;;1568917;74;745;-55
2021/09/23 10:20:49;;;;;;;;;;;24.10;41.50;;;;;;1574501;74;718;-56
2021/09/23 10:22:51;;;;;;;;;;;24.10;41.50;;;;;;1566937;74;727;-56
2021/09/23 10:24:53;;;;;;;;;;;24.10;41.50;;;;;;1580404;74;1084;-55
2021/09/23 10:26:55;;;;;;;;;;;24.00;41.50;;;;;;1576510;74;805;-54
2021/09/23 10:28:58;;;;;;;;;;;24.00;41.50;;;;;;1576533;74;714;-55
2021/09/23 10:30:59;;;;;;;;;;;23.90;41.60;;;;;;1568353;74;679;-55
2021/09/23 10:33:02;;;;;;;;;;;23.90;41.70;;;;;;1564328;74;672;-56
2021/09/23 10:35:04;;;;;;;;;;;23.90;41.70;;;;;;1567002;74;1134;-54
2021/09/23 10:37:06;;;;;;;;;;;23.90;41.80;;;;;;1572047;74;1930;-56
2021/09/23 10:39:08;;;;;;;;;;;23.90;41.90;;;;;;1550647;76;743;-54
2021/09/23 10:41:11;;;;;;;;;;;23.90;41.90;;;;;;1547124;76;803;-56
2021/09/23 10:43:15;;;;;;;;;;;23.90;41.90;;;;;;1550448;76;1087;-56
2021/09/23 10:45:17;;;;;;;;;;;23.90;42.00;;;;;;1547857;76;1084;-55
2021/09/23 10:47:26;;;;;;;;;;;23.90;42.10;;;;;;1537187;76;714;-55
2021/09/23 10:49:28;;;;;;;;;;;23.90;42.10;;;;;;1542329;75;733;-55
2021/09/23 10:51:31;;;;;;;;;;;23.90;42.10;;;;;;1539359;75;799;-55
2021/09/23 10:53:33;;;;;;;;;;;23.90;42.20;;;;;;1558912;75;1149;-56
2021/09/23 10:55:39;;;;;;;;;;;23.80;42.10;;;;;;1572200;75;684;-54
2021/09/23 10:57:41;;;;;;;;;;;23.80;42.10;;;;;;1568729;75;1898;-54
2021/09/23 10:59:42;;;;;;;;;;;23.70;42.20;;;;;;1572519;75;714;-55
2021/09/23 11:01:44;;;;;;;;;;;23.90;42.30;;;;;;1548345;75;783;-54
2021/09/23 11:03:48;;;;;;;;;;;23.90;42.40;;;;;;1544590;76;1155;-57
2021/09/23 11:05:50;;;;;;;;;;;23.80;42.30;;;;;;1550087;76;802;-57
2021/09/23 11:07:52;;;;;;;;;;;23.70;42.40;;;;;;1520088;77;966;-57
2021/09/23 11:10:08;;;;;;;;;;;23.80;42.50;;;;;;1551883;76;705;-55
2021/09/23 11:12:10;;;;;;;;;;;23.70;42.50;;;;;;1551363;76;695;-54
2021/09/23 11:14:12;;;;;;;;;;;23.80;42.60;;;;;;1547049;76;1192;-53
2021/09/23 11:16:17;;;;;;;;;;;23.70;42.70;;;;;;1550475;76;1901;-54
2021/09/23 11:18:20;;;;;;;;;;;23.70;42.70;;;;;;1525465;77;683;-55
2021/09/23 11:20:22;;;;;;;;;;;23.80;42.70;;;;;;1601657;73;725;-57
2021/09/23 11:22:31;;;;;;;;;;;23.70;42.80;;;;;;1606838;73;735;-55
2021/09/23 11:24:33;;;;;;;;;;;23.70;42.80;;;;;;1606586;73;1083;-57
2021/09/23 11:26:36;;;;;;;;;;;23.60;42.70;;;;;;1606224;73;680;-56
2021/09/23 11:28:37;;;;;;;;;;;23.60;42.70;;;;;;1609270;73;722;-56
2021/09/23 11:30:39;;;;;;;;;;;23.70;42.90;;;;;;1605417;73;782;-54
2021/09/23 11:32:52;;;;;;;;;;;23.70;43.00;;;;;;1532683;76;715;-53
2021/09/23 11:34:57;;;;;;;;;;;23.60;42.90;;;;;;1541509;76;1134;-55
2021/09/23 11:36:59;;;;;;;;;;;23.60;42.80;;;;;;1574774;75;1918;-56
2021/09/23 11:39:01;;;;;;;;;;;23.70;43.10;;;;;;1575272;75;719;-55
2021/09/23 11:41:03;;;;;;;;;;;23.70;43.10;;;;;;1575099;74;734;-55
2021/09/23 11:43:06;;;;;;;;;;;23.70;43.10;;;;;;1572285;74;711;-55
2021/09/23 11:45:09;;;;;;;;;;;23.60;43.00;;;;;;1572282;74;1132;-55
2021/09/23 11:47:15;;;;;;;;;;;23.60;43.00;;;;;;1572677;74;789;-56
2021/09/23 11:49:19;;;;;;;;;;;23.70;43.10;;;;;;1561062;75;703;-55
2021/09/23 11:51:20;;;;;;;;;;;23.60;43.00;;;;;;1509333;77;1151;-56
2021/09/23 11:53:24;;;;;;;;;;;23.60;43.10;;;;;;1534242;76;1274;-55
2021/09/23 11:55:26;;;;;;;;;;;23.60;43.10;;;;;;1572051;74;682;-56
2021/09/23 11:57:28;;;;;;;;;;;23.70;43.30;;;;;;1575248;74;1936;-55
2021/09/23 11:59:30;;;;;;;;;;;23.60;43.20;;;;;;1568239;74;788;-54
2021/09/23 12:01:32;;;;;;;;;;;23.60;43.20;;;;;;1540988;76;797;-54
2021/09/23 12:03:38;;;;;;;;;;;23.70;43.30;;;;;;1555675;75;1182;-55
2021/09/23 12:05:40;;;;;;;;;;;23.70;43.30;;;;;;1557930;75;706;-55
2021/09/23 12:07:43;;;;;;;;;;;23.60;43.10;;;;;;1571439;75;670;-55
2021/09/23 12:10:02;;;;;;;;;;;23.60;43.10;;;;;;1526415;76;786;-55